Time;durP1;ratioP1;P1;durP2;ratioP2;P2;SDS_P1;SDS_P2;PMS_P1;PMS_P2;Temp;Humidity;BMP_temperature;BMP_pressure;BME280_temperature;BME280_humidity;BME280_pressure;Samples;Min_cycle;Max_cycle;Signal;HPM_P1;HPM_P2
2021/04/25 00:49:45;;;;;;;23.33;11.05;;;1.50;99.90;;;;;;5024718;28;20080;-70
2021/04/25 00:52:12;;;;;;;23.10;10.27;;;1.50;99.90;;;;;;5020349;28;20046;-71
2021/04/25 00:54:39;;;;;;;35.35;11.63;;;1.50;99.90;;;;;;5025386;28;20075;-71
2021/04/25 00:57:07;;;;;;;30.02;12.50;;;1.50;99.90;;;;;;5027523;28;20053;-72
2021/04/25 00:59:33;;;;;;;62.67;26.33;;;1.50;99.90;;;;;;5023000;28;20072;-71
2021/04/25 01:01:59;;;;;;;30.33;12.70;;;1.50;99.90;;;;;;5016922;28;20490;-70
2021/04/25 01:04:26;;;;;;;35.38;14.70;;;1.50;99.90;;;;;;5023266;28;20449;-71
2021/04/25 01:06:52;;;;;;;37.47;14.88;;;1.40;99.90;;;;;;5012577;28;20049;-71
2021/04/25 01:09:18;;;;;;;31.95;13.02;;;1.30;99.90;;;;;;5024174;28;20041;-71
2021/04/25 01:11:45;;;;;;;20.98;9.85;;;1.30;99.90;;;;;;5026223;28;20057;-71
2021/04/25 01:14:11;;;;;;;26.77;11.88;;;1.30;99.90;;;;;;5006661;28;20398;-71
2021/04/25 01:16:37;;;;;;;22.02;10.48;;;1.20;99.90;;;;;;5013598;28;20041;-71
2021/04/25 01:19:04;;;;;;;24.55;10.00;;;1.10;99.90;;;;;;5010393;28;20053;-71
2021/04/25 01:21:30;;;;;;;20.27;9.55;;;1.10;99.90;;;;;;5026185;28;20041;-70
2021/04/25 01:23:56;;;;;;;22.48;8.98;;;1.10;99.90;;;;;;5025630;28;20455;-71
2021/04/25 01:26:23;;;;;;;19.25;8.48;;;1.00;99.90;;;;;;5022270;28;20053;-71
2021/04/25 01:28:49;;;;;;;26.33;9.70;;;0.90;99.90;;;;;;5014474;28;20103;-70
2021/04/25 01:31:15;;;;;;;22.00;10.00;;;0.80;99.90;;;;;;5021315;28;20046;-70
2021/04/25 01:33:42;;;;;;;23.92;9.85;;;0.90;99.90;;;;;;5000636;28;20050;-70
2021/04/25 01:36:08;;;;;;;21.83;7.88;;;0.70;99.90;;;;;;5040914;28;20053;-71
2021/04/25 01:38:34;;;;;;;22.73;10.48;;;0.70;99.90;;;;;;5026665;28;20049;-69
2021/04/25 01:41:01;;;;;;;20.98;9.75;;;0.70;99.90;;;;;;5009004;28;20050;-71
2021/04/25 01:43:27;;;;;;;41.47;9.65;;;0.70;99.90;;;;;;5027314;28;20045;-71
2021/04/25 01:45:53;;;;;;;20.75;8.65;;;0.60;99.90;;;;;;5037616;28;20049;-71
2021/04/25 01:48:20;;;;;;;21.95;8.93;;;0.50;99.90;;;;;;5026027;28;20148;-71
2021/04/25 01:50:46;;;;;;;18.45;7.60;;;0.40;99.90;;;;;;5026754;28;20068;-70
2021/04/25 01:53:12;;;;;;;22.95;7.65;;;0.30;99.90;;;;;;5025487;28;20414;-70
2021/04/25 01:55:40;;;;;;;17.27;7.55;;;0.30;99.90;;;;;;5040814;28;20053;-70
2021/04/25 01:58:08;;;;;;;18.48;7.47;;;0.30;99.90;;;;;;5025571;28;20080;-70
2021/04/25 02:00:40;;;;;;;23.25;7.60;;;0.20;99.90;;;;;;5025548;28;20049;-71
2021/04/25 02:03:08;;;;;;;18.25;7.93;;;0.20;99.90;;;;;;5025285;28;20041;-71
2021/04/25 02:05:35;;;;;;;17.40;7.80;;;0.10;99.90;;;;;;5019326;28;20049;-70
2021/04/25 02:08:02;;;;;;;17.75;7.40;;;0.10;99.90;;;;;;5026347;28;20174;-71
2021/04/25 02:10:29;;;;;;;22.38;8.82;;;0.10;99.90;;;;;;5018625;28;20494;-70
2021/04/25 02:12:55;;;;;;;21.35;8.07;;;0.00;99.90;;;;;;4999978;28;20041;-70
2021/04/25 02:15:23;;;;;;;18.08;7.90;;;-0.10;99.90;;;;;;5022940;28;20499;-70
2021/04/25 02:17:49;;;;;;;25.75;9.25;;;-0.20;99.90;;;;;;5032205;28;20044;-71
2021/04/25 02:20:18;;;;;;;21.02;8.13;;;-0.20;99.90;;;;;;5040025;28;20045;-71
2021/04/25 02:22:45;;;;;;;28.45;8.75;;;-0.20;99.90;;;;;;5024813;28;20056;-71
2021/04/25 02:25:13;;;;;;;25.05;8.07;;;-0.20;99.90;;;;;;5018832;28;20551;-71
2021/04/25 02:27:40;;;;;;;19.35;8.48;;;-0.30;99.90;;;;;;5023698;28;20046;-71
2021/04/25 02:30:10;;;;;;;23.27;8.75;;;-0.30;99.90;;;;;;5025106;28;20049;-70
2021/04/25 02:32:37;;;;;;;19.80;8.30;;;-0.30;99.90;;;;;;5024624;28;20053;-70
2021/04/25 02:35:09;;;;;;;23.65;9.35;;;-0.40;99.90;;;;;;5024723;28;20081;-71
2021/04/25 02:37:36;;;;;;;20.13;9.27;;;-0.40;99.90;;;;;;5023238;28;20049;-71
2021/04/25 02:40:08;;;;;;;18.52;8.15;;;-0.40;99.90;;;;;;5024265;28;20064;-70
2021/04/25 02:42:34;;;;;;;21.60;9.05;;;-0.40;99.90;;;;;;5024158;28;20124;-71
2021/04/25 02:45:01;;;;;;;19.02;7.95;;;-0.40;99.90;;;;;;5028346;28;20046;-71
2021/04/25 02:47:27;;;;;;;18.40;9.10;;;-0.40;99.90;;;;;;5029625;28;20096;-70
2021/04/25 02:49:54;;;;;;;19.45;8.20;;;-0.50;99.90;;;;;;5027916;28;20053;-70
2021/04/25 02:52:25;;;;;;;22.92;11.30;;;-0.50;99.90;;;;;;5015492;28;20107;-70
2021/04/25 02:54:55;;;;;;;21.10;8.15;;;-0.50;99.90;;;;;;5019567;28;20045;-72
2021/04/25 02:57:22;;;;;;;25.40;9.98;;;-0.50;99.90;;;;;;5028590;28;20095;-72
2021/04/25 02:59:48;;;;;;;19.38;8.55;;;-0.60;99.90;;;;;;5045047;28;20050;-70
2021/04/25 03:02:15;;;;;;;23.02;9.18;;;-0.60;99.90;;;;;;5027855;28;20088;-70
2021/04/25 03:04:41;;;;;;;22.90;9.07;;;-0.70;99.90;;;;;;5011826;28;20046;-71
2021/04/25 03:07:08;;;;;;;24.52;10.43;;;-0.70;99.90;;;;;;5028476;28;20076;-72
2021/04/25 03:09:34;;;;;;;21.95;9.35;;;-0.80;99.90;;;;;;5029371;28;20045;-72
2021/04/25 03:12:00;;;;;;;24.85;10.30;;;-0.80;99.90;;;;;;5027575;28;20133;-70
2021/04/25 03:14:27;;;;;;;20.67;11.52;;;-0.80;99.90;;;;;;5028292;28;20061;-70
2021/04/25 03:16:53;;;;;;;26.38;11.00;;;-0.70;99.90;;;;;;5028751;28;20194;-71
2021/04/25 03:19:19;;;;;;;32.22;12.05;;;-0.80;99.90;;;;;;5027711;28;20081;-72
2021/04/25 03:21:46;;;;;;;25.63;10.73;;;-0.80;99.90;;;;;;5028439;28;20053;-71
2021/04/25 03:24:12;;;;;;;24.15;10.48;;;-0.80;99.90;;;;;;5028154;28;20045;-71
2021/04/25 03:26:38;;;;;;;23.20;10.65;;;-0.80;99.90;;;;;;5027298;28;20155;-72
2021/04/25 03:29:07;;;;;;;24.52;11.18;;;-0.90;99.90;;;;;;5027622;28;20041;-72
2021/04/25 03:31:33;;;;;;;26.60;11.75;;;-0.90;99.90;;;;;;5028259;28;20237;-72
2021/04/25 03:33:59;;;;;;;33.97;10.65;;;-1.00;99.90;;;;;;5027166;28;20486;-70
2021/04/25 03:36:25;;;;;;;27.17;12.38;;;-0.90;99.90;;;;;;5025254;28;20041;-71
2021/04/25 03:38:52;;;;;;;31.73;12.98;;;-1.00;99.90;;;;;;5025443;28;20046;-72
2021/04/25 03:41:18;;;;;;;32.05;12.80;;;-0.90;99.90;;;;;;5043385;28;20044;-71
2021/04/25 03:43:44;;;;;;;26.38;10.95;;;-0.90;99.90;;;;;;5010599;28;20041;-70
2021/04/25 03:46:11;;;;;;;31.27;11.88;;;-1.00;99.90;;;;;;5027363;28;20053;-70
2021/04/25 03:48:38;;;;;;;35.70;12.13;;;-1.00;99.90;;;;;;5028336;28;20675;-71
2021/04/25 03:51:04;;;;;;;30.10;11.10;;;-1.10;99.90;;;;;;5026601;28;20140;-70
2021/04/25 03:53:31;;;;;;;29.27;11.55;;;-1.20;99.90;;;;;;5026322;28;20141;-71
2021/04/25 03:55:57;;;;;;;32.63;11.90;;;-1.20;99.90;;;;;;5028098;28;20053;-71
2021/04/25 03:58:23;;;;;;;23.05;10.50;;;-1.20;99.90;;;;;;5028598;28;20053;-71
2021/04/25 04:00:50;;;;;;;27.65;11.60;;;-1.40;99.90;;;;;;5028008;28;20045;-69
2021/04/25 04:03:20;;;;;;;28.65;11.40;;;-1.30;99.90;;;;;;5028392;28;20144;-71
2021/04/25 04:05:46;;;;;;;28.58;12.25;;;-1.20;99.90;;;;;;5018880;28;20041;-71
2021/04/25 04:08:13;;;;;;;33.38;11.73;;;-1.30;99.90;;;;;;5027013;28;20057;-71
2021/04/25 04:10:39;;;;;;;25.48;12.18;;;-1.30;99.90;;;;;;5027012;28;20059;-72
2021/04/25 04:13:05;;;;;;;28.95;11.73;;;-1.30;99.90;;;;;;5010236;28;20080;-70
2021/04/25 04:15:31;;;;;;;42.20;12.65;;;-1.20;99.90;;;;;;5009799;28;20055;-70
2021/04/25 04:17:58;;;;;;;26.88;11.85;;;-1.20;99.90;;;;;;5026913;28;20053;-71
2021/04/25 04:20:24;;;;;;;27.42;11.90;;;-1.10;99.90;;;;;;5009987;28;20043;-71
2021/04/25 04:22:51;;;;;;;26.08;11.95;;;-1.20;99.90;;;;;;5009989;28;20053;-70
2021/04/25 04:25:17;;;;;;;25.80;12.05;;;-1.40;99.90;;;;;;5026106;28;20154;-70
2021/04/25 04:27:43;;;;;;;31.02;12.43;;;-1.50;99.90;;;;;;5026322;28;20421;-70
2021/04/25 04:30:10;;;;;;;34.78;12.85;;;-1.50;99.90;;;;;;5027650;28;20061;-69
2021/04/25 04:32:36;;;;;;;26.48;12.60;;;-1.50;99.90;;;;;;5009903;28;20063;-71
2021/04/25 04:35:03;;;;;;;29.95;12.98;;;-1.40;99.90;;;;;;5026609;28;20053;-70
2021/04/25 04:37:29;;;;;;;34.40;14.40;;;-1.40;99.90;;;;;;5026355;28;20084;-69
2021/04/25 04:39:56;;;;;;;25.92;12.55;;;-1.30;99.90;;;;;;5026492;28;20224;-70
2021/04/25 04:42:22;;;;;;;31.48;13.38;;;-1.10;99.90;;;;;;5026979;28;20437;-69
2021/04/25 04:44:49;;;;;;;29.45;12.15;;;-0.90;99.90;;;;;;5026749;28;20045;-70
2021/04/25 04:47:15;;;;;;;30.33;12.88;;;-0.80;99.90;;;;;;5024233;28;20041;-71
2021/04/25 04:49:41;;;;;;;30.80;11.55;;;-0.90;99.90;;;;;;5025867;28;20081;-70
2021/04/25 04:52:08;;;;;;;30.08;11.93;;;-0.70;99.90;;;;;;5011375;28;20061;-69
2021/04/25 04:54:34;;;;;;;28.08;11.30;;;-0.70;99.90;;;;;;5023382;28;20056;-70
2021/04/25 04:57:00;;;;;;;24.80;11.32;;;-0.60;99.90;;;;;;5025609;28;20076;-70
2021/04/25 04:59:27;;;;;;;37.55;13.50;;;-0.50;99.90;;;;;;5026417;28;20524;-71
2021/04/25 05:01:53;;;;;;;29.00;12.45;;;-0.70;99.90;;;;;;5025293;28;20058;-71
2021/04/25 05:04:20;;;;;;;29.15;12.15;;;-0.50;99.90;;;;;;5002469;28;20073;-70
2021/04/25 05:06:47;;;;;;;24.75;11.65;;;-0.40;99.90;;;;;;5019068;28;20065;-71
2021/04/25 05:09:13;;;;;;;23.33;11.18;;;-0.30;99.90;;;;;;5005492;28;20557;-70
2021/04/25 05:11:39;;;;;;;25.75;11.50;;;-0.10;99.90;;;;;;5005894;28;20060;-71
2021/04/25 05:14:05;;;;;;;24.98;11.38;;;-0.20;99.90;;;;;;5006436;28;20498;-71
2021/04/25 05:16:32;;;;;;;25.33;11.07;;;0.00;99.90;;;;;;5005691;28;20046;-71
2021/04/25 05:18:58;;;;;;;23.27;11.77;;;0.20;99.90;;;;;;4999417;28;20502;-69
2021/04/25 05:21:24;;;;;;;29.98;12.27;;;0.10;99.90;;;;;;5020718;28;20045;-71
2021/04/25 05:23:51;;;;;;;28.83;13.43;;;0.10;99.90;;;;;;5023920;28;20083;-70
2021/04/25 05:26:18;;;;;;;23.58;10.45;;;0.20;99.90;;;;;;5024503;28;20049;-71
2021/04/25 05:28:44;;;;;;;22.58;10.98;;;0.40;99.90;;;;;;5009084;28;20623;-72
2021/04/25 05:31:10;;;;;;;21.90;10.63;;;0.50;99.90;;;;;;5025044;28;20075;-69
2021/04/25 05:33:36;;;;;;;23.30;9.88;;;0.60;99.90;;;;;;5034379;28;20059;-71
2021/04/25 05:36:03;;;;;;;31.42;11.30;;;0.70;99.90;;;;;;5025567;28;20528;-71
2021/04/25 05:38:30;;;;;;;20.52;10.82;;;0.60;99.90;;;;;;5026859;28;20081;-69
2021/04/25 05:40:56;;;;;;;27.27;11.27;;;0.70;99.90;;;;;;5025557;28;20057;-71
2021/04/25 05:43:22;;;;;;;28.00;12.25;;;0.90;99.90;;;;;;5024627;28;20053;-71
2021/04/25 05:45:49;;;;;;;25.60;10.35;;;0.80;99.90;;;;;;5026698;28;20042;-71
2021/04/25 05:48:15;;;;;;;35.63;17.15;;;0.90;99.90;;;;;;5022063;28;20540;-71
2021/04/25 05:50:41;;;;;;;42.88;20.00;;;1.00;99.90;;;;;;5021772;28;20069;-71
2021/04/25 05:53:08;;;;;;;46.85;22.42;;;1.20;99.90;;;;;;5022887;28;20053;-71
2021/04/25 05:55:34;;;;;;;50.30;23.63;;;1.40;99.90;;;;;;5007090;28;20057;-71
2021/04/25 05:58:00;;;;;;;44.78;18.35;;;1.50;99.90;;;;;;5024032;28;20063;-71
2021/04/25 06:00:29;;;;;;;34.63;15.75;;;1.60;99.90;;;;;;5026415;28;20056;-71
2021/04/25 06:02:56;;;;;;;29.40;14.05;;;1.60;99.90;;;;;;5024946;28;20045;-71
2021/04/25 06:05:23;;;;;;;32.05;13.35;;;1.70;99.90;;;;;;5026460;28;20050;-70
2021/04/25 06:07:52;;;;;;;29.90;15.40;;;1.90;99.90;;;;;;5024555;28;20132;-71
2021/04/25 06:10:20;;;;;;;31.55;13.77;;;2.00;99.90;;;;;;5023649;28;20053;-70
2021/04/25 06:12:48;;;;;;;26.75;14.55;;;2.10;99.90;;;;;;5020255;28;20068;-71
2021/04/25 06:15:16;;;;;;;28.85;13.55;;;2.10;99.90;;;;;;5029332;28;20041;-70
2021/04/25 06:17:43;;;;;;;32.65;13.13;;;2.20;99.90;;;;;;5016635;28;20057;-71
2021/04/25 06:20:11;;;;;;;26.95;14.60;;;2.30;99.90;;;;;;5021405;28;20053;-71
2021/04/25 06:22:39;;;;;;;31.30;14.55;;;2.50;99.90;;;;;;5008783;28;20063;-71
2021/04/25 06:25:07;;;;;;;26.10;12.57;;;2.60;99.90;;;;;;5024115;28;20050;-70
2021/04/25 06:27:38;;;;;;;20.08;13.32;;;2.60;99.90;;;;;;5024561;28;20049;-71
2021/04/25 06:30:05;;;;;;;18.55;13.00;;;2.80;99.90;;;;;;5018392;28;20241;-72
2021/04/25 06:32:32;;;;;;;20.92;12.73;;;2.90;99.90;;;;;;5019272;28;20061;-70
2021/04/25 06:34:58;;;;;;;25.05;13.25;;;3.00;99.90;;;;;;5024426;28;20053;-71
2021/04/25 06:37:24;;;;;;;15.95;11.95;;;3.20;99.90;;;;;;5023672;28;20568;-71
2021/04/25 06:39:51;;;;;;;22.50;12.23;;;3.30;99.90;;;;;;5024908;28;20069;-70
2021/04/25 06:42:17;;;;;;;24.83;12.07;;;3.30;99.90;;;;;;5025428;28;20061;-70
2021/04/25 06:44:43;;;;;;;18.80;11.38;;;3.50;99.90;;;;;;5025588;28;20049;-72
2021/04/25 06:47:10;;;;;;;14.82;11.50;;;3.60;99.90;;;;;;5026256;28;20060;-72
2021/04/25 06:49:37;;;;;;;14.23;11.35;;;3.50;99.90;;;;;;5017263;28;20137;-72
2021/04/25 06:52:04;;;;;;;30.20;11.75;;;3.40;99.90;;;;;;5024143;28;20044;-70
2021/04/25 06:54:31;;;;;;;23.77;12.93;;;3.60;99.90;;;;;;5006113;28;20660;-72
2021/04/25 06:56:57;;;;;;;15.50;11.93;;;3.80;99.90;;;;;;5024783;28;20045;-70
2021/04/25 06:59:23;;;;;;;25.75;16.05;;;3.90;99.90;;;;;;5026731;28;20049;-72
2021/04/25 07:01:49;;;;;;;14.52;11.98;;;3.90;99.90;;;;;;5025044;28;20053;-72
2021/04/25 07:04:16;;;;;;;16.10;11.63;;;4.00;99.90;;;;;;5024992;28;20191;-72
2021/04/25 07:06:42;;;;;;;21.02;13.57;;;4.00;99.90;;;;;;5023801;28;20433;-71
2021/04/25 07:09:09;;;;;;;20.15;12.38;;;4.10;99.90;;;;;;5024383;28;20541;-71
2021/04/25 07:11:35;;;;;;;16.52;13.10;;;4.10;99.90;;;;;;5008230;28;20049;-72
2021/04/25 07:14:01;;;;;;;17.70;12.95;;;4.20;99.90;;;;;;5001319;28;20472;-70
2021/04/25 07:16:28;;;;;;;17.83;13.90;;;4.40;99.90;;;;;;5009244;28;20049;-71
2021/04/25 07:18:54;;;;;;;14.20;11.35;;;4.30;99.90;;;;;;5023881;28;20038;-72
2021/04/25 07:21:20;;;;;;;19.77;12.35;;;4.20;99.90;;;;;;5023670;28;20045;-72
2021/04/25 07:23:47;;;;;;;14.32;11.73;;;4.30;99.90;;;;;;5024258;28;20057;-70
2021/04/25 07:26:13;;;;;;;22.05;14.43;;;4.30;99.90;;;;;;5007707;28;20062;-72
2021/04/25 07:28:40;;;;;;;16.63;12.45;;;4.40;99.90;;;;;;5023182;28;20076;-71
2021/04/25 07:31:07;;;;;;;18.85;12.27;;;4.30;99.90;;;;;;5016819;28;20141;-70
2021/04/25 07:33:34;;;;;;;18.90;14.25;;;4.30;99.90;;;;;;5022848;28;20061;-71
2021/04/25 07:36:02;;;;;;;21.38;16.58;;;4.40;99.90;;;;;;5009053;28;20053;-71
2021/04/25 07:38:28;;;;;;;19.05;14.95;;;4.50;99.90;;;;;;5025933;28;20061;-71
2021/04/25 07:40:54;;;;;;;18.10;12.85;;;4.50;99.90;;;;;;5027430;28;20055;-70
2021/04/25 07:43:21;;;;;;;20.13;13.27;;;4.40;99.90;;;;;;5009128;28;20642;-71
2021/04/25 07:45:47;;;;;;;16.13;13.00;;;4.30;99.90;;;;;;5026228;28;20056;-71
2021/04/25 07:48:13;;;;;;;17.42;13.82;;;4.40;99.90;;;;;;5016753;28;20049;-71
2021/04/25 07:50:39;;;;;;;16.00;13.88;;;4.60;99.90;;;;;;5027912;28;20052;-71
2021/04/25 07:53:06;;;;;;;18.92;14.27;;;4.60;99.90;;;;;;5027365;28;20053;-71
2021/04/25 07:55:32;;;;;;;19.60;12.73;;;4.80;99.90;;;;;;5027468;28;20128;-71
2021/04/25 07:57:58;;;;;;;18.20;12.52;;;4.70;99.90;;;;;;5028198;28;20056;-70
2021/04/25 08:00:25;;;;;;;17.55;12.60;;;4.60;99.90;;;;;;5027170;28;20042;-71
2021/04/25 08:02:51;;;;;;;18.88;14.55;;;4.70;99.90;;;;;;5027191;28;20056;-69
2021/04/25 08:05:17;;;;;;;13.73;12.35;;;4.90;99.90;;;;;;5027978;28;20362;-72
2021/04/25 08:07:45;;;;;;;16.27;12.27;;;4.80;99.90;;;;;;5010726;28;20414;-72
2021/04/25 08:10:12;;;;;;;15.80;13.13;;;4.70;99.90;;;;;;5010314;28;20562;-70
2021/04/25 08:12:38;;;;;;;14.70;13.18;;;4.90;99.90;;;;;;5023950;28;20391;-71
2021/04/25 08:15:05;;;;;;;18.70;13.85;;;4.90;99.90;;;;;;5022436;28;20502;-71
2021/04/25 08:17:32;;;;;;;14.88;13.30;;;5.10;99.90;;;;;;5025041;28;20092;-71
2021/04/25 08:19:59;;;;;;;15.80;13.95;;;5.00;99.90;;;;;;5026931;28;20041;-71
2021/04/25 11:51:19;;;;;;;11.90;10.82;;;8.40;99.90;;;;;;4978559;28;20049;-72
2021/04/25 11:53:45;;;;;;;12.10;10.18;;;8.80;99.90;;;;;;5006401;28;20237;-72
2021/04/25 11:56:27;;;;;;;11.32;10.18;;;8.60;99.90;;;;;;5026147;28;20056;-72
2021/04/25 11:59:10;;;;;;;11.63;10.50;;;8.70;99.90;;;;;;5044352;28;20041;-72
2021/04/25 12:01:38;;;;;;;13.75;9.82;;;8.70;99.90;;;;;;5029290;28;20077;-73
2021/04/25 12:04:05;;;;;;;12.27;9.55;;;8.20;99.90;;;;;;5026716;28;20053;-73
2021/04/25 12:06:47;;;;;;;11.55;10.25;;;8.60;99.90;;;;;;4993112;28;20132;-72
2021/04/25 12:09:15;;;;;;;13.57;10.57;;;9.20;99.90;;;;;;5011255;28;20421;-73
2021/04/25 12:11:43;;;;;;;10.63;9.70;;;9.50;99.90;;;;;;5024930;28;20089;-73
2021/04/25 12:14:20;;;;;;;11.48;9.93;;;9.30;99.90;;;;;;5042128;28;20053;-73
2021/04/25 12:16:46;;;;;;;17.95;11.40;;;9.70;99.90;;;;;;5003093;28;20120;-73
2021/04/25 12:19:24;;;;;;;11.02;10.07;;;10.30;99.90;;;;;;5009264;28;20046;-72
2021/04/25 12:21:51;;;;;;;11.50;10.50;;;10.50;99.90;;;;;;5029557;28;20054;-72
2021/04/25 12:24:21;;;;;;;16.98;11.20;;;9.60;99.90;;;;;;4993627;28;20041;-73
2021/04/25 12:26:48;;;;;;;10.30;9.43;;;10.10;99.90;;;;;;5009408;28;20414;-73
2021/04/25 12:29:14;;;;;;;10.85;9.85;;;10.50;99.90;;;;;;5010037;28;20050;-73
2021/04/25 12:31:44;;;;;;;11.68;10.63;;;10.30;99.90;;;;;;5024961;28;20042;-74
2021/04/25 12:34:17;;;;;;;11.38;10.40;;;10.40;99.90;;;;;;5024604;28;20073;-72
2021/04/25 12:36:49;;;;;;;10.77;10.05;;;10.30;99.90;;;;;;5020846;28;20577;-73
2021/04/25 12:39:16;;;;;;;12.23;11.02;;;10.20;99.90;;;;;;5026241;28;20096;-73
2021/04/25 12:41:49;;;;;;;12.68;11.45;;;10.40;99.90;;;;;;5026387;28;20597;-73
2021/04/25 12:44:18;;;;;;;14.23;11.27;;;10.10;99.90;;;;;;5043084;28;20111;-73
2021/04/25 12:46:58;;;;;;;11.50;10.48;;;9.90;99.90;;;;;;5009214;28;20076;-74
2021/04/25 12:49:35;;;;;;;12.35;11.25;;;9.70;99.90;;;;;;5007328;28;20070;-74
2021/04/25 12:52:03;;;;;;;13.23;11.07;;;9.70;99.90;;;;;;5001978;28;20183;-71
2021/04/25 12:54:41;;;;;;;15.63;10.52;;;9.10;99.90;;;;;;5009452;28;20045;-73
2021/04/25 12:57:08;;;;;;;12.30;10.50;;;9.10;99.90;;;;;;5026053;28;20046;-72
2021/04/25 12:59:37;;;;;;;12.23;10.25;;;9.20;99.90;;;;;;5043585;28;20045;-74
2021/04/25 13:02:05;;;;;;;11.82;10.65;;;9.50;99.90;;;;;;5025703;28;20067;-73
2021/04/25 13:04:34;;;;;;;11.60;10.48;;;10.20;99.90;;;;;;5043697;28;20494;-73
2021/04/25 13:07:22;;;;;;;11.32;10.18;;;10.40;99.90;;;;;;5006404;28;20057;-72
2021/04/25 13:09:58;;;;;;;12.02;10.77;;;9.70;99.90;;;;;;5008821;28;20042;-72
2021/04/25 13:12:25;;;;;;;11.75;10.88;;;9.50;99.90;;;;;;5022080;28;20289;-73
2021/04/25 13:15:08;;;;;;;11.43;10.63;;;9.80;99.90;;;;;;5008443;28;20077;-74
2021/04/25 13:17:39;;;;;;;11.02;10.25;;;10.10;99.90;;;;;;5033414;28;20048;-73
2021/04/25 13:20:26;;;;;;;12.88;11.40;;;10.20;99.90;;;;;;5024636;28;20355;-74
2021/04/25 13:23:01;;;;;;;12.55;11.60;;;11.10;99.90;;;;;;5027085;28;20706;-74
2021/04/25 13:25:30;;;;;;;17.88;10.60;;;12.00;99.90;;;;;;5026004;28;20131;-72
2021/04/25 13:27:59;;;;;;;12.18;11.18;;;12.30;99.90;;;;;;5022323;28;20487;-72
2021/04/25 13:30:36;;;;;;;14.82;11.02;;;12.50;98.90;;;;;;4999526;28;20391;-73
2021/04/25 13:33:03;;;;;;;11.80;10.90;;;11.70;99.00;;;;;;5024898;28;20053;-73
2021/04/25 13:35:30;;;;;;;11.20;10.25;;;10.90;99.90;;;;;;5008859;28;20502;-74
2021/04/25 13:37:58;;;;;;;11.85;10.65;;;10.90;99.90;;;;;;5026075;28;20049;-72
2021/04/25 13:40:27;;;;;;;14.40;10.68;;;10.40;99.90;;;;;;5025393;28;20060;-74
2021/04/25 13:42:53;;;;;;;17.20;11.07;;;10.40;99.90;;;;;;5025988;28;20155;-73
2021/04/25 13:45:20;;;;;;;13.10;11.93;;;10.40;99.90;;;;;;5026885;28;20083;-73
2021/04/25 13:47:47;;;;;;;12.23;11.02;;;10.80;99.90;;;;;;5027133;28;20045;-72
2021/04/25 13:50:14;;;;;;;11.82;10.68;;;10.60;99.50;;;;;;5001360;28;20044;-73
2021/04/25 13:52:40;;;;;;;11.73;10.60;;;10.40;99.90;;;;;;5006981;28;20056;-72
2021/04/25 13:55:07;;;;;;;11.57;10.30;;;10.40;99.90;;;;;;5026442;28;20057;-73
2021/04/25 13:57:34;;;;;;;15.55;10.07;;;10.70;99.90;;;;;;5017689;28;20236;-72
2021/04/25 14:00:01;;;;;;;12.25;11.02;;;11.00;99.90;;;;;;5025946;28;20049;-71
2021/04/25 14:02:30;;;;;;;11.63;10.43;;;10.90;97.00;;;;;;5023800;28;20145;-72
2021/04/25 14:04:57;;;;;;;11.10;10.18;;;11.30;98.80;;;;;;5019238;28;20045;-74
2021/04/25 14:07:23;;;;;;;12.82;10.98;;;11.70;98.80;;;;;;5022302;28;20052;-74
2021/04/25 14:09:50;;;;;;;11.20;10.10;;;11.70;98.30;;;;;;5021410;28;20049;-71
2021/04/25 14:12:16;;;;;;;13.23;12.00;;;11.20;99.70;;;;;;5005361;28;20483;-73
2021/04/25 14:14:43;;;;;;;11.55;10.63;;;11.50;99.90;;;;;;5020018;28;20059;-73
2021/04/25 14:17:09;;;;;;;14.15;11.73;;;11.30;99.90;;;;;;5024762;28;20049;-72
2021/04/25 14:19:36;;;;;;;12.32;11.13;;;11.20;97.20;;;;;;5008074;28;20061;-72
2021/04/25 14:22:04;;;;;;;11.85;10.93;;;10.70;97.60;;;;;;5024666;28;20049;-72
2021/04/25 14:24:30;;;;;;;12.00;10.80;;;10.80;98.40;;;;;;5008776;28;20045;-73
2021/04/25 14:26:57;;;;;;;12.45;11.65;;;11.40;98.20;;;;;;5004890;28;20113;-73
2021/04/25 14:29:24;;;;;;;13.15;11.88;;;11.80;96.20;;;;;;5040169;28;20081;-73
2021/04/25 14:31:52;;;;;;;12.80;11.80;;;11.70;94.50;;;;;;5024574;28;20144;-72
2021/04/25 14:34:19;;;;;;;13.50;11.82;;;12.10;97.90;;;;;;5026413;28;20049;-73
2021/04/25 14:36:46;;;;;;;14.35;11.45;;;11.90;95.70;;;;;;5022804;28;20053;-74
2021/04/25 14:39:12;;;;;;;12.13;11.15;;;11.40;96.10;;;;;;5025780;28;20083;-74
2021/04/25 14:41:39;;;;;;;11.50;10.55;;;11.40;95.40;;;;;;5023808;28;20084;-74
2021/04/25 14:44:07;;;;;;;12.40;11.23;;;11.40;97.30;;;;;;5024999;28;20050;-72
2021/04/25 14:46:34;;;;;;;11.63;10.60;;;11.50;96.60;;;;;;5024083;28;20052;-72
2021/04/25 14:49:01;;;;;;;12.10;11.05;;;10.90;97.90;;;;;;5024588;28;20044;-73
2021/04/25 14:51:29;;;;;;;11.80;10.80;;;10.70;98.30;;;;;;5021977;28;20128;-74
2021/04/25 14:53:56;;;;;;;12.18;11.23;;;10.90;97.00;;;;;;5005119;28;20057;-73
2021/04/25 14:56:23;;;;;;;13.02;11.75;;;10.80;98.50;;;;;;5022980;28;20070;-73
2021/04/25 14:58:49;;;;;;;12.57;11.70;;;10.20;98.60;;;;;;5025128;28;20123;-73
2021/04/25 15:01:15;;;;;;;14.00;12.73;;;10.10;99.90;;;;;;5021184;28;20050;-74
2021/04/25 15:03:44;;;;;;;12.10;11.40;;;10.30;99.90;;;;;;5006084;28;20077;-74
2021/04/25 15:06:13;;;;;;;12.55;11.65;;;10.50;99.30;;;;;;5027063;28;20092;-73
2021/04/25 15:08:39;;;;;;;12.98;11.98;;;10.70;99.80;;;;;;5024689;28;20136;-74
2021/04/25 15:11:05;;;;;;;14.40;11.75;;;10.70;97.70;;;;;;5025790;28;20421;-73
2021/04/25 15:13:32;;;;;;;12.43;11.52;;;11.00;98.10;;;;;;5024992;28;20748;-73
2021/04/25 15:15:58;;;;;;;12.65;11.43;;;10.90;97.20;;;;;;5023086;28;20294;-72
2021/04/25 15:18:24;;;;;;;13.40;12.43;;;10.30;96.80;;;;;;5025490;28;20460;-73
2021/04/25 15:20:51;;;;;;;12.43;11.63;;;9.90;98.00;;;;;;4998719;28;20136;-73
2021/04/25 15:23:17;;;;;;;13.13;12.18;;;10.00;99.50;;;;;;5023161;28;20053;-72
2021/04/25 15:25:44;;;;;;;15.23;12.57;;;10.30;99.90;;;;;;5023277;28;20057;-74
2021/04/25 15:28:12;;;;;;;13.23;12.25;;;10.30;99.90;;;;;;5024587;28;20156;-73
2021/04/25 15:30:38;;;;;;;13.48;12.23;;;9.90;99.50;;;;;;5014524;28;20050;-72
2021/04/25 15:33:06;;;;;;;12.77;11.80;;;9.60;99.90;;;;;;4991397;28;20445;-73
2021/04/25 15:35:33;;;;;;;13.70;12.48;;;9.40;99.90;;;;;;5039827;28;20046;-73
2021/04/25 15:38:01;;;;;;;12.93;11.77;;;9.40;99.90;;;;;;5024791;28;20056;-73
2021/04/25 15:40:31;;;;;;;11.52;10.80;;;9.30;99.90;;;;;;5021994;28;20053;-73
2021/04/25 15:42:58;;;;;;;11.27;10.20;;;9.40;99.90;;;;;;5024247;28;20132;-72
2021/04/25 15:45:39;;;;;;;13.23;12.18;;;9.50;99.90;;;;;;5012412;28;20044;-74
2021/04/25 15:48:07;;;;;;;12.77;11.75;;;9.40;99.70;;;;;;5005143;28;20056;-73
2021/04/25 15:50:35;;;;;;;12.60;11.45;;;9.60;99.90;;;;;;5025165;28;20061;-73
2021/04/25 15:53:01;;;;;;;12.18;11.27;;;9.70;99.90;;;;;;5027612;28;20095;-73
2021/04/25 15:55:28;;;;;;;13.02;11.90;;;9.70;99.90;;;;;;5029138;28;20072;-72
2021/04/25 15:57:55;;;;;;;13.35;12.20;;;9.60;99.90;;;;;;4993866;28;20088;-72
2021/04/25 16:00:21;;;;;;;14.30;12.80;;;9.20;99.90;;;;;;5044169;28;20041;-72
2021/04/25 16:02:48;;;;;;;12.45;11.73;;;9.00;99.90;;;;;;5029053;28;20049;-72
2021/04/25 16:05:18;;;;;;;13.50;12.18;;;9.20;99.90;;;;;;5003923;28;20133;-73
2021/04/25 16:07:45;;;;;;;14.88;11.77;;;9.50;99.90;;;;;;5011885;28;20045;-72
2021/04/25 16:10:13;;;;;;;14.05;13.02;;;9.70;99.90;;;;;;5026403;28;20052;-73
2021/04/25 16:12:40;;;;;;;12.65;11.75;;;9.90;99.90;;;;;;5044578;28;20085;-73
2021/04/25 16:15:07;;;;;;;12.02;10.95;;;9.70;98.70;;;;;;5029394;28;20088;-73
2021/04/25 16:17:34;;;;;;;12.15;11.32;;;9.80;99.90;;;;;;5026755;28;20130;-73
2021/04/25 16:20:00;;;;;;;13.45;12.23;;;9.90;98.80;;;;;;5003125;28;20502;-73
2021/04/25 16:22:27;;;;;;;12.90;11.88;;;9.70;97.70;;;;;;5011554;28;20061;-74
2021/04/25 16:24:53;;;;;;;11.95;11.05;;;9.80;97.70;;;;;;5010414;28;20438;-73
2021/04/25 16:27:19;;;;;;;13.45;12.27;;;9.60;98.10;;;;;;5027443;28;20151;-74
2021/04/25 16:29:46;;;;;;;13.50;12.20;;;9.60;99.60;;;;;;5006407;28;20136;-72
2021/04/25 16:32:12;;;;;;;15.48;11.85;;;9.80;99.50;;;;;;5029073;28;20122;-72
2021/04/25 16:34:39;;;;;;;13.23;12.05;;;9.90;99.60;;;;;;5026545;28;20083;-73
2021/04/25 16:37:05;;;;;;;12.02;11.30;;;9.90;99.30;;;;;;5025475;28;20135;-73
2021/04/25 16:39:32;;;;;;;12.25;11.35;;;10.00;99.90;;;;;;5028560;28;20049;-74
2021/04/25 16:41:59;;;;;;;12.50;11.57;;;9.90;99.90;;;;;;4994405;28;20558;-73
2021/04/25 16:44:25;;;;;;;13.63;11.10;;;9.90;99.70;;;;;;5022754;28;20117;-73
2021/04/25 16:46:52;;;;;;;12.93;12.02;;;9.90;97.70;;;;;;5008648;28;20569;-73
2021/04/25 16:49:19;;;;;;;13.20;11.90;;;9.80;99.90;;;;;;5026170;28;20069;-72
2021/04/25 16:51:46;;;;;;;13.30;12.27;;;9.70;98.80;;;;;;5018085;28;20474;-73